Time;durP1;ratioP1;P1;durP2;ratioP2;P2;SDS_P1;SDS_P2;PMS_P1;PMS_P2;Temp;Humidity;BMP_temperature;BMP_pressure;BME280_temperature;BME280_humidity;BME280_pressure;Samples;Min_cycle;Max_cycle;Signal;HPM_P1;HPM_P2
2023/03/26 00:01:48;;;;;;;7.05;2.53;;;12.70;84.50;;;;;;5045189;28;20086;-55
2023/03/26 00:04:18;;;;;;;7.97;2.58;;;12.70;84.50;;;;;;5045158;28;20076;-55
2023/03/26 00:06:47;;;;;;;6.70;2.75;;;12.70;84.50;;;;;;5045201;28;20021;-55
2023/03/26 00:09:13;;;;;;;7.07;2.63;;;12.60;84.50;;;;;;5046309;28;20044;-55
2023/03/26 00:11:38;;;;;;;6.85;2.58;;;12.70;84.60;;;;;;5046268;28;20446;-55
2023/03/26 00:14:04;;;;;;;5.72;2.30;;;12.70;84.60;;;;;;5046252;28;20041;-55
2023/03/26 00:16:30;;;;;;;4.80;2.45;;;12.70;84.50;;;;;;5044717;28;20051;-55
2023/03/26 00:18:56;;;;;;;6.88;2.10;;;12.60;84.50;;;;;;5045820;28;20057;-55
2023/03/26 00:21:26;;;;;;;6.32;2.45;;;12.60;84.40;;;;;;5044949;28;20033;-55
2023/03/26 00:23:54;;;;;;;7.38;2.55;;;12.60;84.60;;;;;;5046020;28;20030;-55
2023/03/26 00:26:19;;;;;;;7.70;2.58;;;12.60;84.70;;;;;;5044479;28;20022;-55
2023/03/26 00:28:45;;;;;;;5.00;2.58;;;12.60;84.80;;;;;;5044423;28;20026;-55
2023/03/26 00:31:12;;;;;;;9.52;2.20;;;12.60;84.80;;;;;;5044629;28;20041;-55
2023/03/26 00:33:39;;;;;;;6.35;2.42;;;12.60;84.90;;;;;;5044644;28;20060;-54
2023/03/26 00:36:08;;;;;;;10.90;2.70;;;12.60;84.90;;;;;;5044510;28;20081;-55
2023/03/26 00:38:37;;;;;;;7.22;2.35;;;12.60;84.90;;;;;;5044894;28;20030;-55
2023/03/26 00:41:04;;;;;;;5.05;2.20;;;12.60;84.80;;;;;;5045581;28;20029;-55
2023/03/26 00:43:31;;;;;;;6.32;2.47;;;12.60;84.90;;;;;;5044487;28;20032;-55
2023/03/26 00:45:57;;;;;;;6.65;2.53;;;12.60;85.00;;;;;;5044350;28;20089;-55
2023/03/26 00:48:22;;;;;;;5.97;2.40;;;12.60;85.10;;;;;;5044307;28;20033;-55
2023/03/26 00:50:48;;;;;;;5.72;2.13;;;12.60;85.00;;;;;;5044080;28;20036;-55
2023/03/26 00:53:14;;;;;;;4.40;2.10;;;12.60;85.10;;;;;;5045429;28;20033;-55
2023/03/26 00:55:40;;;;;;;6.80;2.60;;;12.50;85.10;;;;;;5045568;28;20036;-55
2023/03/26 00:58:09;;;;;;;4.72;2.17;;;12.50;85.10;;;;;;5027600;28;20036;-56
2023/03/26 01:00:35;;;;;;;8.95;2.50;;;12.50;85.20;;;;;;5044064;28;20037;-56
2023/03/26 01:03:03;;;;;;;6.53;2.38;;;12.50;84.90;;;;;;5044201;28;20071;-55
2023/03/26 01:05:32;;;;;;;3.38;2.00;;;12.50;84.90;;;;;;5043966;28;20041;-55
2023/03/26 01:08:14;;;;;;;7.25;2.20;;;12.50;85.00;;;;;;5045185;28;20018;-55
2023/03/26 01:10:43;;;;;;;4.75;2.10;;;12.50;85.00;;;;;;5029417;28;20100;-55
2023/03/26 01:13:08;;;;;;;8.70;2.45;;;12.50;85.00;;;;;;5044057;28;20022;-55
2023/03/26 01:15:37;;;;;;;7.72;2.35;;;12.50;85.20;;;;;;5043645;28;20104;-56
2023/03/26 01:18:04;;;;;;;3.63;1.73;;;12.50;85.30;;;;;;5027748;28;20025;-55
2023/03/26 01:20:29;;;;;;;4.75;2.00;;;12.50;85.30;;;;;;5043689;28;20048;-56
2023/03/26 01:22:59;;;;;;;3.58;1.85;;;12.50;85.30;;;;;;5043844;28;20021;-55
2023/03/26 01:25:26;;;;;;;5.53;2.08;;;12.50;85.30;;;;;;5043721;28;20034;-55
2023/03/26 01:27:53;;;;;;;3.58;2.05;;;12.40;85.30;;;;;;5043828;28;20512;-55
2023/03/26 01:30:37;;;;;;;4.05;1.98;;;12.50;85.40;;;;;;5043698;28;20103;-55
2023/03/26 01:33:14;;;;;;;5.15;2.10;;;12.50;85.40;;;;;;5043923;28;20036;-56
2023/03/26 01:36:04;;;;;;;4.65;1.98;;;12.50;85.60;;;;;;5026923;28;20064;-55
2023/03/26 01:42:19;;;;;;;5.13;2.00;;;12.40;85.60;;;;;;5044116;28;20056;-56
2023/03/26 01:44:52;;;;;;;5.32;2.15;;;12.40;85.60;;;;;;5044824;28;20084;-55
2023/03/26 01:47:17;;;;;;;3.40;1.73;;;12.40;85.50;;;;;;5043440;28;20107;-55
2023/03/26 01:49:43;;;;;;;4.53;2.03;;;12.40;85.70;;;;;;5043183;28;20064;-55
2023/03/26 01:52:15;;;;;;;4.78;2.05;;;12.40;85.80;;;;;;5044563;28;20092;-55
2023/03/26 01:54:41;;;;;;;4.43;1.88;;;12.40;86.40;;;;;;5026775;28;20067;-56
2023/03/26 01:57:15;;;;;;;2.65;1.77;;;12.40;85.70;;;;;;5043503;28;20081;-55
2023/03/26 02:00:10;;;;;;;3.47;2.08;;;12.30;85.70;;;;;;5044528;28;20153;-56
2023/03/26 02:02:44;;;;;;;6.47;2.20;;;12.30;85.80;;;;;;5044568;28;20493;-55
2023/03/26 02:05:22;;;;;;;2.60;1.83;;;12.30;85.90;;;;;;5044290;28;20100;-55
2023/03/26 02:08:15;;;;;;;4.78;2.00;;;12.30;85.90;;;;;;5043238;28;20021;-56
2023/03/26 02:10:43;;;;;;;6.65;2.47;;;12.30;86.00;;;;;;5043309;28;20045;-55
2023/03/26 02:13:10;;;;;;;2.58;1.70;;;12.30;86.70;;;;;;5043329;28;20026;-55
2023/03/26 02:15:35;;;;;;;4.40;1.88;;;12.30;86.00;;;;;;5043110;28;20040;-55
2023/03/26 02:18:02;;;;;;;6.15;2.03;;;12.30;86.10;;;;;;5043052;28;20052;-55
2023/03/26 02:20:28;;;;;;;3.08;1.60;;;12.30;86.00;;;;;;5043036;28;20033;-56
2023/03/26 02:22:55;;;;;;;3.42;1.67;;;12.30;86.10;;;;;;5044492;28;20378;-55
2023/03/26 02:25:20;;;;;;;4.10;1.80;;;12.20;86.10;;;;;;5026507;28;20033;-56
2023/03/26 02:27:46;;;;;;;4.03;1.55;;;12.20;86.20;;;;;;5043027;28;20550;-55
2023/03/26 02:30:17;;;;;;;3.35;1.65;;;12.30;87.00;;;;;;5043381;28;20033;-55
2023/03/26 02:32:42;;;;;;;2.13;1.40;;;12.20;86.20;;;;;;5043327;28;20058;-56
2023/03/26 02:35:09;;;;;;;3.67;1.67;;;12.20;86.20;;;;;;5044607;28;20041;-55
2023/03/26 02:37:34;;;;;;;4.20;1.70;;;12.20;86.30;;;;;;5043008;28;20060;-55
2023/03/26 02:40:00;;;;;;;4.72;1.73;;;12.20;86.20;;;;;;5042844;28;20033;-55
2023/03/26 02:42:26;;;;;;;3.45;1.88;;;12.20;86.20;;;;;;5042810;28;20024;-55
2023/03/26 02:44:51;;;;;;;3.38;1.58;;;12.20;86.30;;;;;;5042847;28;20036;-55
2023/03/26 02:47:17;;;;;;;3.47;1.80;;;12.20;86.30;;;;;;5044136;28;20021;-55
2023/03/26 02:49:42;;;;;;;2.70;1.63;;;12.20;86.30;;;;;;5042587;28;20033;-55
2023/03/26 02:52:08;;;;;;;4.68;1.73;;;12.20;86.30;;;;;;5042417;28;20038;-55
2023/03/26 02:54:34;;;;;;;5.35;1.50;;;12.20;86.40;;;;;;5042804;28;20037;-55
2023/03/26 02:56:59;;;;;;;2.85;1.30;;;12.20;86.40;;;;;;5042759;28;20085;-55
2023/03/26 02:59:25;;;;;;;4.97;1.52;;;12.20;86.40;;;;;;5042571;28;20034;-55
2023/03/26 03:01:51;;;;;;;6.20;1.88;;;12.20;86.40;;;;;;5045280;28;20025;-55
2023/03/26 03:04:17;;;;;;;1.88;1.35;;;12.20;86.50;;;;;;5046406;28;20081;-55
2023/03/26 03:06:43;;;;;;;4.18;1.85;;;12.20;86.60;;;;;;5045988;28;20021;-55
2023/03/26 03:09:09;;;;;;;3.58;1.80;;;12.20;86.60;;;;;;5047554;28;20041;-55
2023/03/26 03:11:35;;;;;;;5.55;1.73;;;12.10;86.60;;;;;;5046351;28;20029;-56
2023/03/26 03:14:00;;;;;;;3.25;1.70;;;12.20;86.70;;;;;;5046386;28;20037;-55
2023/03/26 03:16:26;;;;;;;8.02;2.17;;;12.10;86.80;;;;;;5046122;28;20030;-55
2023/03/26 03:18:55;;;;;;;5.47;1.88;;;12.10;87.50;;;;;;5046003;28;20177;-55
2023/03/26 03:21:25;;;;;;;4.10;1.45;;;12.20;87.00;;;;;;5046059;28;20021;-55
2023/03/26 03:23:52;;;;;;;3.15;1.55;;;12.10;87.10;;;;;;5045981;28;20474;-55
2023/03/26 03:26:20;;;;;;;4.63;2.00;;;12.10;87.10;;;;;;5045792;28;20159;-55
2023/03/26 03:28:47;;;;;;;4.90;1.80;;;12.10;87.20;;;;;;5045876;28;20052;-55
2023/03/26 03:31:12;;;;;;;4.03;1.90;;;12.10;87.50;;;;;;5047235;28;20029;-55
2023/03/26 03:33:40;;;;;;;6.65;2.10;;;12.10;87.70;;;;;;5047230;28;20037;-55
2023/03/26 03:36:09;;;;;;;5.10;1.90;;;12.10;87.70;;;;;;5045991;28;20033;-55
2023/03/26 03:38:38;;;;;;;5.43;1.90;;;12.10;88.10;;;;;;5047113;28;20133;-56
2023/03/26 03:41:04;;;;;;;3.60;1.95;;;12.10;88.10;;;;;;5045587;28;20029;-55
2023/03/26 03:43:31;;;;;;;5.10;1.73;;;12.10;88.30;;;;;;5029003;28;20026;-56
2023/03/26 03:45:57;;;;;;;4.50;1.70;;;12.10;88.90;;;;;;5045618;28;20029;-56
2023/03/26 03:48:22;;;;;;;5.85;1.90;;;12.10;88.50;;;;;;5045402;28;20021;-55
2023/03/26 03:50:48;;;;;;;4.63;1.77;;;12.00;88.40;;;;;;5046737;28;20477;-55
2023/03/26 03:53:15;;;;;;;6.32;2.00;;;12.10;88.40;;;;;;5045584;28;20045;-55
2023/03/26 03:55:51;;;;;;;2.00;1.25;;;12.10;88.50;;;;;;5046855;28;20037;-56
2023/03/26 03:58:26;;;;;;;6.22;1.70;;;12.00;88.70;;;;;;5045703;28;20025;-55
2023/03/26 04:00:52;;;;;;;3.95;1.80;;;12.00;88.90;;;;;;5047250;28;20042;-53
2023/03/26 04:03:18;;;;;;;2.60;1.52;;;12.00;88.90;;;;;;5047165;28;20072;-55
2023/03/26 04:05:48;;;;;;;3.88;1.85;;;12.00;88.90;;;;;;5047157;28;20045;-55
2023/03/26 04:08:17;;;;;;;5.95;1.60;;;12.00;88.90;;;;;;5044777;28;20094;-56
2023/03/26 04:10:43;;;;;;;7.03;1.60;;;12.00;89.00;;;;;;5045057;28;20029;-55
2023/03/26 04:13:10;;;;;;;3.10;1.75;;;12.00;89.00;;;;;;5028179;28;20048;-54
2023/03/26 04:15:35;;;;;;;4.55;1.60;;;12.00;89.60;;;;;;5044984;28;20021;-55
2023/03/26 04:18:01;;;;;;;3.08;1.77;;;12.00;89.00;;;;;;5045175;28;20434;-55
2023/03/26 04:20:26;;;;;;;3.60;1.63;;;12.00;88.90;;;;;;5044779;28;20025;-55
2023/03/26 04:22:52;;;;;;;4.07;1.70;;;12.00;88.90;;;;;;5044735;28;20068;-55
2023/03/26 04:25:18;;;;;;;3.72;1.30;;;11.90;88.80;;;;;;5045354;28;20033;-55
2023/03/26 04:27:43;;;;;;;4.05;1.25;;;11.90;88.80;;;;;;5045441;28;20033;-56
2023/03/26 04:30:11;;;;;;;6.07;2.00;;;11.90;88.70;;;;;;5044644;28;20040;-55
2023/03/26 04:32:39;;;;;;;1.60;1.30;;;11.90;88.70;;;;;;5044503;28;20481;-55
2023/03/26 04:35:05;;;;;;;2.97;1.70;;;11.90;88.80;;;;;;5044672;28;20053;-56
2023/03/26 04:37:38;;;;;;;4.47;1.58;;;11.90;88.80;;;;;;5044684;28;20034;-56
2023/03/26 04:40:10;;;;;;;2.33;1.50;;;11.90;88.80;;;;;;5044368;28;20029;-55
2023/03/26 04:42:40;;;;;;;2.35;1.38;;;11.80;88.70;;;;;;5044742;28;20037;-56
2023/03/26 04:45:09;;;;;;;2.65;1.50;;;11.90;88.80;;;;;;5044622;28;20052;-55
2023/03/26 04:47:35;;;;;;;3.03;1.50;;;11.90;88.70;;;;;;5044222;28;20069;-58
2023/03/26 04:50:02;;;;;;;7.05;1.70;;;11.80;88.70;;;;;;5045596;28;20025;-55
2023/03/26 04:52:28;;;;;;;3.00;1.17;;;11.80;88.70;;;;;;5044149;28;20037;-55
2023/03/26 04:54:53;;;;;;;1.90;1.17;;;11.80;88.70;;;;;;5044325;28;20337;-61
2023/03/26 04:57:28;;;;;;;2.22;1.55;;;11.80;88.70;;;;;;5045574;28;20048;-55
2023/03/26 04:59:53;;;;;;;1.95;1.35;;;11.80;88.70;;;;;;5043968;28;20029;-55
2023/03/26 05:02:19;;;;;;;3.63;1.70;;;11.80;88.70;;;;;;5044629;28;20049;-55
2023/03/26 05:04:45;;;;;;;3.70;1.30;;;11.80;88.70;;;;;;5044126;28;20025;-55
2023/03/26 05:07:12;;;;;;;2.28;1.35;;;11.80;88.70;;;;;;5044054;28;20103;-55
2023/03/26 05:09:37;;;;;;;3.13;1.55;;;11.80;89.30;;;;;;5044179;28;20036;-55
2023/03/26 05:12:03;;;;;;;2.33;1.35;;;11.80;88.60;;;;;;5045310;28;20037;-55
2023/03/26 05:14:28;;;;;;;2.60;1.15;;;11.70;88.60;;;;;;5044065;28;20068;-55
2023/03/26 05:16:54;;;;;;;3.13;1.38;;;11.70;88.60;;;;;;5045334;28;20135;-55
2023/03/26 05:19:20;;;;;;;1.90;1.17;;;11.70;88.60;;;;;;5027277;28;20029;-56
2023/03/26 05:21:46;;;;;;;4.60;1.48;;;11.70;88.60;;;;;;5045287;28;20030;-55
2023/03/26 05:24:12;;;;;;;4.03;1.48;;;11.70;88.50;;;;;;5043574;28;20049;-55
2023/03/26 05:26:37;;;;;;;3.35;1.30;;;11.70;88.50;;;;;;5043793;28;20026;-55
2023/03/26 05:29:03;;;;;;;4.68;1.30;;;11.70;88.50;;;;;;5043629;28;20084;-55
2023/03/26 05:31:30;;;;;;;3.47;1.33;;;11.70;88.50;;;;;;5043908;28;20025;-55
2023/03/26 05:33:56;;;;;;;3.83;1.23;;;11.70;88.50;;;;;;5045031;28;20045;-55
2023/03/26 05:36:21;;;;;;;2.20;1.20;;;11.70;88.40;;;;;;5043788;28;20041;-55
2023/03/26 05:38:48;;;;;;;2.00;1.00;;;11.70;88.40;;;;;;5043539;28;20051;-55
2023/03/26 05:41:14;;;;;;;2.55;1.35;;;11.70;88.30;;;;;;5043696;28;20030;-55
2023/03/26 05:43:40;;;;;;;3.33;1.30;;;11.70;88.30;;;;;;5044902;28;20036;-55
2023/03/26 05:46:05;;;;;;;4.00;1.30;;;11.70;88.20;;;;;;5043545;28;20048;-55
2023/03/26 05:48:31;;;;;;;2.20;1.10;;;11.70;88.20;;;;;;5044910;28;20029;-55
2023/03/26 05:50:57;;;;;;;2.38;1.02;;;11.70;88.50;;;;;;5026838;28;20080;-55
2023/03/26 05:53:23;;;;;;;4.25;1.45;;;11.70;88.30;;;;;;5043498;28;20064;-55
2023/03/26 05:55:58;;;;;;;1.67;1.15;;;11.70;88.30;;;;;;5026858;28;20030;-55
2023/03/26 05:58:28;;;;;;;2.30;1.35;;;11.60;88.30;;;;;;5043546;28;20021;-55
2023/03/26 06:00:58;;;;;;;2.45;1.10;;;11.60;88.40;;;;;;5043320;28;20030;-55
2023/03/26 06:03:23;;;;;;;2.88;1.08;;;11.70;88.30;;;;;;5043272;28;20052;-55
2023/03/26 06:05:49;;;;;;;4.60;1.23;;;11.60;88.30;;;;;;5044710;28;20030;-55
2023/03/26 06:08:15;;;;;;;1.98;0.98;;;11.60;88.40;;;;;;5043119;28;20063;-55
2023/03/26 06:10:40;;;;;;;1.27;1.10;;;11.60;88.50;;;;;;5044567;28;20136;-55
2023/03/26 06:13:06;;;;;;;2.88;1.10;;;11.60;88.60;;;;;;5043367;28;20029;-55
2023/03/26 06:15:32;;;;;;;2.17;1.10;;;11.60;88.60;;;;;;5026756;28;20109;-55
2023/03/26 06:17:57;;;;;;;1.83;0.90;;;11.60;88.60;;;;;;5043106;28;20037;-55
2023/03/26 06:20:23;;;;;;;3.45;1.10;;;11.60;88.60;;;;;;5043049;28;20034;-55
2023/03/26 06:22:48;;;;;;;1.83;1.10;;;11.60;88.60;;;;;;5044497;28;20109;-55
2023/03/26 06:25:14;;;;;;;2.25;1.00;;;11.60;88.80;;;;;;5043003;28;20033;-55
2023/03/26 06:27:40;;;;;;;4.18;1.17;;;11.60;88.80;;;;;;5043200;28;20032;-55
2023/03/26 06:30:06;;;;;;;2.58;1.00;;;11.60;88.80;;;;;;5044542;28;20334;-55
2023/03/26 06:32:31;;;;;;;1.55;1.00;;;11.50;88.90;;;;;;5043085;28;20133;-55
2023/03/26 06:34:57;;;;;;;2.25;0.95;;;11.50;88.90;;;;;;5044403;28;20116;-55
2023/03/26 06:37:23;;;;;;;2.20;1.00;;;11.50;89.00;;;;;;5046588;28;20029;-55
2023/03/26 06:39:48;;;;;;;2.50;1.10;;;11.50;89.10;;;;;;5048563;28;20034;-55
2023/03/26 06:42:14;;;;;;;3.03;1.10;;;11.60;89.20;;;;;;5046988;28;20076;-55
2023/03/26 06:44:39;;;;;;;2.78;1.20;;;11.50;89.00;;;;;;5048261;28;20091;-55
2023/03/26 06:47:05;;;;;;;2.33;0.93;;;11.50;89.00;;;;;;5048094;28;20033;-55
2023/03/26 06:49:30;;;;;;;3.33;0.90;;;11.50;89.10;;;;;;5046556;28;20042;-55
2023/03/26 06:51:56;;;;;;;1.52;0.95;;;11.50;89.20;;;;;;5046470;28;20068;-55
2023/03/26 06:54:22;;;;;;;2.00;1.08;;;11.50;89.30;;;;;;5046618;28;20037;-55
2023/03/26 06:56:47;;;;;;;1.25;0.90;;;11.50;89.40;;;;;;5046463;28;20031;-55
2023/03/26 06:59:13;;;;;;;1.95;1.10;;;11.50;89.50;;;;;;5046357;28;20025;-55
2023/03/26 07:01:39;;;;;;;2.15;1.42;;;11.50;89.60;;;;;;5046730;28;20037;-54
2023/03/26 07:04:04;;;;;;;4.03;1.02;;;11.50;89.50;;;;;;5046307;28;20081;-55
2023/03/26 07:06:31;;;;;;;2.92;1.10;;;11.50;89.60;;;;;;5046205;28;20056;-55
2023/03/26 07:08:56;;;;;;;2.33;1.25;;;11.50;90.10;;;;;;5045991;28;20108;-55
2023/03/26 07:11:24;;;;;;;1.63;1.00;;;11.50;89.60;;;;;;5046049;28;20037;-55
2023/03/26 07:13:50;;;;;;;1.00;0.90;;;11.50;89.70;;;;;;5046033;28;20033;-55
2023/03/26 07:16:16;;;;;;;2.88;1.10;;;11.50;89.80;;;;;;5046215;28;20049;-55
2023/03/26 07:18:41;;;;;;;1.70;0.95;;;11.50;89.90;;;;;;5046010;28;20029;-55
2023/03/26 07:21:07;;;;;;;2.60;1.00;;;11.50;89.90;;;;;;5029398;28;20026;-55
2023/03/26 07:23:33;;;;;;;1.00;0.85;;;11.50;90.00;;;;;;5047245;28;20516;-55
2023/03/26 07:26:00;;;;;;;1.58;0.80;;;11.50;90.00;;;;;;5047385;28;20041;-55
2023/03/26 07:28:40;;;;;;;2.67;1.02;;;11.50;90.00;;;;;;5045765;28;20030;-54
2023/03/26 07:31:27;;;;;;;3.22;0.90;;;11.50;90.00;;;;;;5045916;28;20029;-55
2023/03/26 07:33:56;;;;;;;2.20;1.20;;;11.50;90.00;;;;;;5046408;28;20037;-55
2023/03/26 07:37:07;;;;;;;2.70;1.10;;;11.50;90.00;;;;;;5046899;28;20025;-55
2023/03/26 07:40:01;;;;;;;3.08;1.05;;;11.50;90.00;;;;;;5027373;28;20037;-55
2023/03/26 07:42:26;;;;;;;3.42;1.15;;;11.50;90.10;;;;;;5036691;28;20041;-55
2023/03/26 07:44:55;;;;;;;3.40;1.23;;;11.50;90.10;;;;;;5045512;28;20110;-55
2023/03/26 07:47:28;;;;;;;1.63;1.00;;;11.40;90.10;;;;;;5046375;28;20032;-55
2023/03/26 07:49:54;;;;;;;1.63;1.10;;;11.50;90.20;;;;;;5045358;28;20068;-55
2023/03/26 07:52:20;;;;;;;1.80;0.95;;;11.40;90.20;;;;;;5046485;28;20059;-55
2023/03/26 07:54:46;;;;;;;3.00;1.10;;;11.50;90.20;;;;;;5046763;28;20061;-55
2023/03/26 07:57:59;;;;;;;2.03;1.20;;;11.50;90.20;;;;;;5045224;28;20041;-55
2023/03/26 08:00:27;;;;;;;6.22;1.15;;;11.50;90.20;;;;;;5024244;28;20072;-55
2023/03/26 08:03:20;;;;;;;4.60;1.25;;;11.50;90.20;;;;;;5042141;28;20037;-55
2023/03/26 08:06:01;;;;;;;4.50;1.20;;;11.50;90.20;;;;;;5045091;28;20038;-55
2023/03/26 08:08:45;;;;;;;2.70;1.42;;;11.50;90.30;;;;;;5046463;28;20046;-54
2023/03/26 08:11:33;;;;;;;2.50;1.00;;;11.50;90.30;;;;;;5046475;28;20117;-55
2023/03/26 08:14:22;;;;;;;3.60;1.05;;;11.50;90.30;;;;;;5044940;28;20048;-55
2023/03/26 08:16:52;;;;;;;6.60;0.90;;;11.50;90.30;;;;;;5042045;28;20058;-55
2023/03/26 08:19:24;;;;;;;5.70;1.15;;;11.50;90.30;;;;;;5044581;28;20034;-55
2023/03/26 08:21:57;;;;;;;3.92;1.23;;;11.50;90.30;;;;;;5046055;28;20040;-55
2023/03/26 08:24:37;;;;;;;6.68;1.70;;;11.50;90.30;;;;;;5027885;28;20025;-55
2023/03/26 08:27:08;;;;;;;2.10;0.80;;;11.50;90.40;;;;;;5044657;28;20108;-55
2023/03/26 08:30:01;;;;;;;2.17;0.90;;;11.50;90.40;;;;;;5044403;28;20113;-55
2023/03/26 08:32:26;;;;;;;3.33;1.30;;;11.50;90.40;;;;;;5037358;28;20076;-55
2023/03/26 08:34:52;;;;;;;4.32;1.00;;;11.50;90.50;;;;;;5044133;28;20038;-56
2023/03/26 08:37:17;;;;;;;6.28;1.80;;;11.50;90.40;;;;;;5044302;28;20040;-55
2023/03/26 08:39:43;;;;;;;5.05;1.20;;;11.50;90.50;;;;;;5045272;28;20152;-55
2023/03/26 08:42:24;;;;;;;2.75;1.20;;;11.50;90.80;;;;;;5027784;28;20032;-55
2023/03/26 08:45:15;;;;;;;4.25;1.23;;;11.50;90.50;;;;;;5044060;28;20096;-55
2023/03/26 08:48:06;;;;;;;37.88;4.25;;;11.60;90.50;;;;;;5043932;28;20060;-55
2023/03/26 08:50:47;;;;;;;22.38;3.80;;;11.60;90.50;;;;;;5045115;28;20041;-55
2023/03/26 08:53:21;;;;;;;12.32;2.63;;;11.60;90.50;;;;;;5044997;28;20042;-55
2023/03/26 08:56:10;;;;;;;29.42;3.90;;;11.70;90.50;;;;;;5045094;28;20032;-55
2023/03/26 08:59:03;;;;;;;27.05;4.10;;;11.70;90.70;;;;;;5042884;28;20040;-55
2023/03/26 09:01:44;;;;;;;72.88;7.80;;;11.70;90.70;;;;;;5029536;28;20104;-55
2023/03/26 09:04:41;;;;;;;43.38;4.25;;;11.70;90.70;;;;;;5043458;28;20531;-55
2023/03/26 09:07:29;;;;;;;;;;;11.70;90.90;;;;;;5043840;28;20060;-55
2023/03/26 09:10:32;;;;;;;51.58;5.35;;;11.70;90.90;;;;;;5066559;28;19919;-55
2023/03/26 09:13:18;;;;;;;35.78;4.75;;;11.70;91.00;;;;;;5035295;28;20485;-55
2023/03/26 09:16:04;;;;;;;31.35;3.53;;;11.80;91.00;;;;;;5037894;28;20056;-55
2023/03/26 09:19:07;;;;;;;45.38;4.47;;;11.80;91.00;;;;;;5032524;28;20037;-55
2023/03/26 09:22:10;;;;;;;45.05;4.75;;;11.80;91.10;;;;;;5044571;28;20037;-55
2023/03/26 09:25:12;;;;;;;46.08;5.63;;;11.80;91.20;;;;;;5044402;28;20393;-55
2023/03/26 09:27:47;;;;;;;52.92;5.35;;;11.80;91.30;;;;;;5032041;28;20030;-55
2023/03/26 09:30:37;;;;;;;62.00;6.60;;;11.90;91.20;;;;;;5049854;28;20036;-55
2023/03/26 09:33:34;;;;;;;62.15;8.00;;;12.00;91.20;;;;;;5050546;28;20863;-55
2023/03/26 09:35:59;;;;;;;;;;;12.00;91.40;;;;;;5036810;28;20079;-55
2023/03/26 09:38:28;;;;;;;91.60;12.60;;;12.10;91.70;;;;;;5060141;28;19913;-55
2023/03/26 09:41:15;;;;;;;97.88;12.93;;;12.10;91.70;;;;;;5045284;28;20045;-55
2023/03/26 09:43:57;;;;;;;113.35;13.70;;;12.10;91.80;;;;;;5051703;28;20041;-55
2023/03/26 09:46:41;;;;;;;120.97;11.57;;;12.20;91.80;;;;;;5042871;28;20044;-54
2023/03/26 09:49:21;;;;;;;125.60;13.23;;;12.30;91.80;;;;;;5045502;28;20040;-55
2023/03/26 09:51:50;;;;;;;152.57;15.40;;;12.30;92.00;;;;;;5048692;28;20091;-55
2023/03/26 09:54:31;;;;;;;137.35;15.77;;;12.30;92.10;;;;;;5040778;28;20030;-55
2023/03/26 09:56:57;;;;;;;159.35;16.02;;;12.40;92.10;;;;;;5049793;28;20029;-55
2023/03/26 09:59:41;;;;;;;161.05;15.15;;;12.40;92.10;;;;;;5063969;28;20045;-55
2023/03/26 10:02:19;;;;;;;211.10;21.23;;;12.50;92.10;;;;;;5025542;28;20029;-55
2023/03/26 10:05:16;;;;;;;153.70;17.83;;;12.50;92.00;;;;;;5044053;28;20041;-55
2023/03/26 10:08:03;;;;;;;180.65;23.15;;;12.60;91.90;;;;;;5043257;28;20037;-55
2023/03/26 10:10:33;;;;;;;248.40;24.88;;;12.60;92.00;;;;;;5043473;28;20033;-55
2023/03/26 10:13:19;;;;;;;240.23;24.70;;;12.70;92.00;;;;;;5077510;28;20029;-55
2023/03/26 10:16:06;;;;;;;199.30;23.77;;;12.80;91.90;;;;;;5044438;28;20132;-55
2023/03/26 10:18:53;;;;;;;252.95;26.25;;;12.80;91.90;;;;;;5047440;28;20034;-55
2023/03/26 10:21:28;;;;;;;209.68;22.42;;;12.90;91.90;;;;;;5045199;28;20523;-55
2023/03/26 10:24:11;;;;;;;263.23;26.20;;;12.90;92.20;;;;;;5056215;28;20037;-55
2023/03/26 10:26:50;;;;;;;227.20;26.83;;;13.00;91.90;;;;;;5039845;28;20071;-55
2023/03/26 10:29:25;;;;;;;255.27;26.55;;;13.00;91.90;;;;;;5043569;28;20026;-55
2023/03/26 10:31:50;;;;;;;221.88;24.25;;;13.10;91.90;;;;;;5047458;28;20033;-55
2023/03/26 10:34:40;;;;;;;215.90;23.45;;;13.10;92.00;;;;;;5047894;28;20083;-55
2023/03/26 10:37:24;;;;;;;285.75;27.40;;;13.10;91.90;;;;;;5050279;28;20021;-55
2023/03/26 10:40:16;;;;;;;228.90;27.85;;;13.20;92.00;;;;;;5026721;28;20037;-55
2023/03/26 10:43:16;;;;;;;243.57;28.45;;;13.20;92.00;;;;;;5059465;28;20041;-55
2023/03/26 10:46:02;;;;;;;256.33;28.52;;;13.20;91.90;;;;;;5047074;28;20044;-55
2023/03/26 10:48:44;;;;;;;271.50;28.52;;;13.30;91.90;;;;;;5043642;28;20022;-55
2023/03/26 10:51:18;;;;;;;335.02;37.13;;;13.30;92.00;;;;;;5057908;28;20038;-55
2023/03/26 10:53:49;;;;;;;283.50;30.52;;;13.30;92.10;;;;;;5027776;28;20030;-55
2023/03/26 10:56:25;;;;;;;264.33;27.98;;;13.30;92.00;;;;;;5034743;28;20044;-55
2023/03/26 10:58:51;;;;;;;255.77;27.35;;;13.40;92.00;;;;;;5062566;28;20033;-55
2023/03/26 11:01:47;;;;;;;273.80;30.50;;;13.40;92.00;;;;;;5056720;28;20089;-55
2023/03/26 11:04:16;;;;;;;431.33;44.38;;;13.40;92.10;;;;;;5045083;28;20056;-55
2023/03/26 11:06:49;;;;;;;289.75;30.83;;;13.40;92.00;;;;;;5058759;28;20079;-55
2023/03/26 11:09:39;;;;;;;295.40;32.38;;;13.50;91.90;;;;;;5068008;28;20040;-55
2023/03/26 11:12:08;;;;;;;324.15;35.42;;;13.50;91.90;;;;;;5045398;28;20029;-55
2023/03/26 11:15:02;;;;;;;312.30;37.38;;;13.60;92.10;;;;;;5045240;28;20069;-55
2023/03/26 11:17:27;;;;;;;270.50;28.80;;;13.60;92.10;;;;;;5046881;28;20038;-55
2023/03/26 11:19:56;;;;;;;253.57;29.75;;;13.60;92.00;;;;;;5045102;28;20095;-55
2023/03/26 11:22:31;;;;;;;229.10;27.00;;;13.70;91.90;;;;;;5042130;28;20021;-55
2023/03/26 11:25:15;;;;;;;309.77;31.83;;;13.70;91.80;;;;;;5026828;28;20052;-55
2023/03/26 11:28:03;;;;;;;339.67;33.88;;;13.80;91.80;;;;;;5044509;28;20466;-55
2023/03/26 11:30:39;;;;;;;274.30;28.98;;;13.80;91.80;;;;;;5045877;28;20033;-55
2023/03/26 11:33:07;;;;;;;311.25;34.50;;;13.90;91.90;;;;;;5044468;28;20026;-55
2023/03/26 11:35:37;;;;;;;259.73;27.08;;;13.90;91.80;;;;;;5044562;28;20045;-55
2023/03/26 11:38:19;;;;;;;275.52;27.27;;;13.90;91.70;;;;;;5028469;28;20064;-55
2023/03/26 11:40:49;;;;;;;260.77;30.20;;;13.90;91.60;;;;;;5044318;28;20528;-55
2023/03/26 11:43:16;;;;;;;175.88;21.08;;;14.00;91.70;;;;;;5044704;28;20085;-54
2023/03/26 11:45:43;;;;;;;221.40;24.25;;;14.00;91.40;;;;;;5074022;28;20127;-55
2023/03/26 11:48:30;;;;;;;231.50;25.55;;;14.10;91.30;;;;;;5077244;28;20026;-55
2023/03/26 11:51:07;;;;;;;232.02;24.90;;;14.10;91.30;;;;;;5041257;28;20044;-55
2023/03/26 11:53:37;;;;;;;240.82;26.50;;;14.20;91.60;;;;;;5060024;28;20037;-55
2023/03/26 11:56:07;;;;;;;271.23;28.80;;;14.20;91.20;;;;;;5059095;28;20049;-54
2023/03/26 11:58:48;;;;;;;290.50;31.38;;;14.20;91.30;;;;;;5078002;28;20060;-55
2023/03/26 12:01:28;;;;;;;238.82;27.77;;;14.30;91.40;;;;;;5059109;28;20090;-55
2023/03/26 12:03:56;;;;;;;273.20;27.98;;;14.40;91.40;;;;;;5060054;28;20434;-55
2023/03/26 12:06:26;;;;;;;243.85;26.23;;;14.40;91.60;;;;;;5060866;28;20085;-55
2023/03/26 12:08:51;;;;;;;213.88;24.13;;;14.70;91.20;;;;;;5076945;28;20033;-55
2023/03/26 12:11:17;;;;;;;231.50;24.30;;;14.50;91.10;;;;;;5077377;28;20039;-56
2023/03/26 12:13:58;;;;;;;241.93;23.83;;;14.60;91.10;;;;;;5059583;28;20075;-55
2023/03/26 12:16:23;;;;;;;186.52;24.58;;;14.60;90.90;;;;;;5060056;28;20030;-55
2023/03/26 12:19:17;;;;;;;230.82;24.95;;;14.60;91.10;;;;;;5045175;28;20025;-56
2023/03/26 12:21:44;;;;;;;209.70;23.02;;;14.70;91.10;;;;;;5057820;28;20045;-55
2023/03/26 12:24:30;;;;;;;229.60;25.08;;;14.70;91.00;;;;;;5076811;28;20047;-55
2023/03/26 12:27:19;;;;;;;239.82;26.02;;;14.70;91.10;;;;;;5076798;28;20029;-55
2023/03/26 12:29:51;;;;;;;265.17;27.70;;;14.70;91.10;;;;;;5047682;28;20113;-55
2023/03/26 12:32:17;;;;;;;236.80;25.30;;;14.70;91.20;;;;;;5075275;28;20120;-55
2023/03/26 12:34:42;;;;;;;297.48;29.45;;;14.70;90.90;;;;;;5059311;28;20030;-55
2023/03/26 12:37:34;;;;;;;251.68;27.45;;;14.80;90.80;;;;;;5060051;28;20034;-55
2023/03/26 12:40:26;;;;;;;252.07;26.52;;;14.80;90.90;;;;;;5043297;28;20029;-55
2023/03/26 12:42:54;;;;;;;250.27;28.15;;;14.80;90.90;;;;;;5044741;28;20110;-55
2023/03/26 12:45:44;;;;;;;255.52;28.05;;;14.90;90.80;;;;;;5044734;28;20033;-55
2023/03/26 12:48:11;;;;;;;284.02;26.60;;;15.00;90.80;;;;;;5071125;28;20029;-55
2023/03/26 12:50:55;;;;;;;288.52;28.60;;;15.00;90.70;;;;;;5053358;28;20048;-55
2023/03/26 12:53:39;;;;;;;265.10;28.30;;;15.00;90.70;;;;;;5043294;28;20036;-55
2023/03/26 12:56:37;;;;;;;251.35;26.67;;;15.10;90.60;;;;;;5041890;28;20038;-55
2023/03/26 12:59:12;;;;;;;326.50;31.85;;;15.20;90.60;;;;;;5073292;28;20056;-55
2023/03/26 13:02:03;;;;;;;317.45;33.72;;;15.30;90.70;;;;;;5042077;28;20084;-55
2023/03/26 13:04:54;;;;;;;344.35;36.05;;;15.30;90.80;;;;;;5043011;28;20029;-55
2023/03/26 13:07:26;;;;;;;303.45;33.28;;;15.40;90.80;;;;;;5043735;28;20039;-55
2023/03/26 13:10:04;;;;;;;387.30;41.75;;;15.50;90.80;;;;;;5075362;28;20550;-55